sensor_id;sensor_type;location;lat;lon;timestamp;temperature;humidity
25512;DHT22;13414;44.534;18.700;2024-02-23T00:02:20;9.60;1.00
25512;DHT22;13414;44.534;18.700;2024-02-23T00:04:49;9.50;1.00
25512;DHT22;13414;44.534;18.700;2024-02-23T00:07:18;9.40;1.00
25512;DHT22;13414;44.534;18.700;2024-02-23T00:09:46;9.40;1.00
25512;DHT22;13414;44.534;18.700;2024-02-23T00:12:14;9.40;1.00
25512;DHT22;13414;44.534;18.700;2024-02-23T00:14:42;9.40;1.00
25512;DHT22;13414;44.534;18.700;2024-02-23T00:17:09;9.30;1.00
25512;DHT22;13414;44.534;18.700;2024-02-23T00:19:37;9.30;1.00
25512;DHT22;13414;44.534;18.700;2024-02-23T00:22:06;9.20;1.00
25512;DHT22;13414;44.534;18.700;2024-02-23T00:24:34;9.30;1.00
25512;DHT22;13414;44.534;18.700;2024-02-23T00:27:03;9.30;1.00
25512;DHT22;13414;44.534;18.700;2024-02-23T00:29:30;9.30;1.00
25512;DHT22;13414;44.534;18.700;2024-02-23T00:31:58;9.30;1.00
25512;DHT22;13414;44.534;18.700;2024-02-23T00:34:25;9.40;1.00
25512;DHT22;13414;44.534;18.700;2024-02-23T00:36:52;9.30;1.00
25512;DHT22;13414;44.534;18.700;2024-02-23T00:39:21;9.40;1.00
25512;DHT22;13414;44.534;18.700;2024-02-23T00:41:49;9.40;1.00
25512;DHT22;13414;44.534;18.700;2024-02-23T00:44:16;9.50;1.00
25512;DHT22;13414;44.534;18.700;2024-02-23T00:46:43;9.40;1.00
25512;DHT22;13414;44.534;18.700;2024-02-23T00:49:11;9.40;1.00
25512;DHT22;13414;44.534;18.700;2024-02-23T00:51:38;9.40;1.00
25512;DHT22;13414;44.534;18.700;2024-02-23T00:54:06;9.40;1.00
25512;DHT22;13414;44.534;18.700;2024-02-23T00:56:35;9.40;1.00
25512;DHT22;13414;44.534;18.700;2024-02-23T00:59:02;9.30;1.00
25512;DHT22;13414;44.534;18.700;2024-02-23T01:01:31;9.30;1.00
25512;DHT22;13414;44.534;18.700;2024-02-23T01:03:59;9.40;1.00
25512;DHT22;13414;44.534;18.700;2024-02-23T01:06:26;9.40;1.00
25512;DHT22;13414;44.534;18.700;2024-02-23T01:08:54;9.40;1.00
25512;DHT22;13414;44.534;18.700;2024-02-23T01:11:22;9.40;1.00
25512;DHT22;13414;44.534;18.700;2024-02-23T01:13:51;9.40;1.00
25512;DHT22;13414;44.534;18.700;2024-02-23T01:16:18;9.40;1.00
25512;DHT22;13414;44.534;18.700;2024-02-23T01:18:46;9.30;1.00
25512;DHT22;13414;44.534;18.700;2024-02-23T01:21:13;9.40;1.00
25512;DHT22;13414;44.534;18.700;2024-02-23T01:23:41;9.40;1.00
25512;DHT22;13414;44.534;18.700;2024-02-23T01:26:09;9.40;1.00
25512;DHT22;13414;44.534;18.700;2024-02-23T01:28:36;9.40;1.00
25512;DHT22;13414;44.534;18.700;2024-02-23T01:31:07;9.40;1.00
25512;DHT22;13414;44.534;18.700;2024-02-23T01:33:36;9.50;1.00
25512;DHT22;13414;44.534;18.700;2024-02-23T01:36:04;9.40;1.00
25512;DHT22;13414;44.534;18.700;2024-02-23T01:38:32;9.40;1.00
25512;DHT22;13414;44.534;18.700;2024-02-23T01:40:59;9.40;1.00
25512;DHT22;13414;44.534;18.700;2024-02-23T01:43:27;9.50;1.00
25512;DHT22;13414;44.534;18.700;2024-02-23T01:45:56;9.60;1.00
25512;DHT22;13414;44.534;18.700;2024-02-23T01:48:25;9.60;1.00
25512;DHT22;13414;44.534;18.700;2024-02-23T01:50:54;9.60;1.00
25512;DHT22;13414;44.534;18.700;2024-02-23T01:53:22;9.60;1.00
25512;DHT22;13414;44.534;18.700;2024-02-23T01:55:51;9.50;11.50
25512;DHT22;13414;44.534;18.700;2024-02-23T01:58:20;9.50;13.50
25512;DHT22;13414;44.534;18.700;2024-02-23T02:00:47;9.50;58.90
25512;DHT22;13414;44.534;18.700;2024-02-23T02:03:15;9.50;49.00
25512;DHT22;13414;44.534;18.700;2024-02-23T02:05:46;9.60;61.80
25512;DHT22;13414;44.534;18.700;2024-02-23T02:08:15;9.50;93.90
25512;DHT22;13414;44.534;18.700;2024-02-23T02:10:43;9.50;93.30
25512;DHT22;13414;44.534;18.700;2024-02-23T02:13:11;9.50;99.90
25512;DHT22;13414;44.534;18.700;2024-02-23T02:15:38;9.50;99.90
25512;DHT22;13414;44.534;18.700;2024-02-23T02:18:06;9.60;98.40
25512;DHT22;13414;44.534;18.700;2024-02-23T02:20:33;9.70;99.90
25512;DHT22;13414;44.534;18.700;2024-02-23T02:23:04;9.70;85.90
25512;DHT22;13414;44.534;18.700;2024-02-23T02:25:33;9.70;99.90
25512;DHT22;13414;44.534;18.700;2024-02-23T02:28:00;9.60;99.90
25512;DHT22;13414;44.534;18.700;2024-02-23T02:30:28;9.60;99.90
25512;DHT22;13414;44.534;18.700;2024-02-23T02:32:56;9.60;99.90
25512;DHT22;13414;44.534;18.700;2024-02-23T02:35:23;9.60;99.90
25512;DHT22;13414;44.534;18.700;2024-02-23T02:37:51;9.70;99.90
25512;DHT22;13414;44.534;18.700;2024-02-23T02:40:20;9.80;32.50
25512;DHT22;13414;44.534;18.700;2024-02-23T02:42:47;9.90;1.00
25512;DHT22;13414;44.534;18.700;2024-02-23T02:45:14;9.90;31.70
25512;DHT22;13414;44.534;18.700;2024-02-23T02:47:43;9.90;32.80
25512;DHT22;13414;44.534;18.700;2024-02-23T02:50:10;10.00;5.90
25512;DHT22;13414;44.534;18.700;2024-02-23T02:52:38;10.00;7.30
25512;DHT22;13414;44.534;18.700;2024-02-23T02:55:06;10.10;40.20
25512;DHT22;13414;44.534;18.700;2024-02-23T02:57:35;10.00;45.40
25512;DHT22;13414;44.534;18.700;2024-02-23T03:00:03;10.10;1.00
25512;DHT22;13414;44.534;18.700;2024-02-23T03:02:31;10.10;1.00
25512;DHT22;13414;44.534;18.700;2024-02-23T03:04:58;10.10;93.50
25512;DHT22;13414;44.534;18.700;2024-02-23T03:07:26;10.20;1.00
25512;DHT22;13414;44.534;18.700;2024-02-23T03:09:53;10.30;1.00
25512;DHT22;13414;44.534;18.700;2024-02-23T03:12:20;10.40;1.00
25512;DHT22;13414;44.534;18.700;2024-02-23T03:14:49;10.50;1.00
25512;DHT22;13414;44.534;18.700;2024-02-23T03:17:17;10.70;1.00
25512;DHT22;13414;44.534;18.700;2024-02-23T03:19:44;10.80;1.00
25512;DHT22;13414;44.534;18.700;2024-02-23T03:22:11;10.90;1.00
25512;DHT22;13414;44.534;18.700;2024-02-23T03:24:40;11.10;1.00
25512;DHT22;13414;44.534;18.700;2024-02-23T03:27:07;11.30;1.00
25512;DHT22;13414;44.534;18.700;2024-02-23T03:29:34;11.40;1.00
25512;DHT22;13414;44.534;18.700;2024-02-23T03:32:04;11.60;1.00
25512;DHT22;13414;44.534;18.700;2024-02-23T03:34:31;11.70;1.00
25512;DHT22;13414;44.534;18.700;2024-02-23T03:36:59;11.80;1.00
25512;DHT22;13414;44.534;18.700;2024-02-23T03:39:28;11.90;1.00
25512;DHT22;13414;44.534;18.700;2024-02-23T03:41:55;12.10;1.00
25512;DHT22;13414;44.534;18.700;2024-02-23T03:44:23;12.40;1.00
25512;DHT22;13414;44.534;18.700;2024-02-23T03:46:50;12.50;1.00
25512;DHT22;13414;44.534;18.700;2024-02-23T03:49:19;12.70;1.00
25512;DHT22;13414;44.534;18.700;2024-02-23T03:51:47;12.70;1.00
25512;DHT22;13414;44.534;18.700;2024-02-23T03:54:14;12.70;1.00
25512;DHT22;13414;44.534;18.700;2024-02-23T03:56:42;12.70;1.00
25512;DHT22;13414;44.534;18.700;2024-02-23T03:59:10;12.70;1.00
25512;DHT22;13414;44.534;18.700;2024-02-23T04:01:38;12.80;1.00
25512;DHT22;13414;44.534;18.700;2024-02-23T04:04:06;12.80;1.00
25512;DHT22;13414;44.534;18.700;2024-02-23T04:06:35;12.80;1.00
25512;DHT22;13414;44.534;18.700;2024-02-23T04:09:02;12.80;1.00
25512;DHT22;13414;44.534;18.700;2024-02-23T04:11:30;12.80;1.00
25512;DHT22;13414;44.534;18.700;2024-02-23T04:13:58;12.80;1.00
25512;DHT22;13414;44.534;18.700;2024-02-23T04:16:27;12.80;1.00
25512;DHT22;13414;44.534;18.700;2024-02-23T04:18:55;12.80;1.00
25512;DHT22;13414;44.534;18.700;2024-02-23T04:21:22;12.80;1.00
25512;DHT22;13414;44.534;18.700;2024-02-23T04:23:51;12.90;1.00
25512;DHT22;13414;44.534;18.700;2024-02-23T04:26:18;12.80;1.00
25512;DHT22;13414;44.534;18.700;2024-02-23T04:28:46;12.80;1.00
25512;DHT22;13414;44.534;18.700;2024-02-23T04:31:13;12.90;1.00
25512;DHT22;13414;44.534;18.700;2024-02-23T04:33:41;12.90;1.00
25512;DHT22;13414;44.534;18.700;2024-02-23T04:36:08;12.90;1.00
25512;DHT22;13414;44.534;18.700;2024-02-23T04:38:35;13.00;1.00
25512;DHT22;13414;44.534;18.700;2024-02-23T04:41:04;13.00;1.00
25512;DHT22;13414;44.534;18.700;2024-02-23T04:43:33;13.00;1.00
25512;DHT22;13414;44.534;18.700;2024-02-23T04:46:00;13.00;1.00
25512;DHT22;13414;44.534;18.700;2024-02-23T04:48:28;13.10;1.00
25512;DHT22;13414;44.534;18.700;2024-02-23T04:50:56;13.20;1.00
25512;DHT22;13414;44.534;18.700;2024-02-23T04:53:24;13.20;1.00
25512;DHT22;13414;44.534;18.700;2024-02-23T04:55:51;13.20;1.00
25512;DHT22;13414;44.534;18.700;2024-02-23T04:58:20;13.10;1.00
25512;DHT22;13414;44.534;18.700;2024-02-23T05:00:48;13.10;1.00
25512;DHT22;13414;44.534;18.700;2024-02-23T05:03:15;13.10;1.00
25512;DHT22;13414;44.534;18.700;2024-02-23T05:05:43;13.00;1.00
25512;DHT22;13414;44.534;18.700;2024-02-23T05:08:10;13.10;1.00
25512;DHT22;13414;44.534;18.700;2024-02-23T05:10:37;13.00;1.00
25512;DHT22;13414;44.534;18.700;2024-02-23T05:13:05;12.90;1.00
25512;DHT22;13414;44.534;18.700;2024-02-23T05:15:34;12.90;1.00
25512;DHT22;13414;44.534;18.700;2024-02-23T05:18:01;12.90;1.00
25512;DHT22;13414;44.534;18.700;2024-02-23T05:20:29;12.80;1.00
25512;DHT22;13414;44.534;18.700;2024-02-23T05:22:57;12.90;1.00
25512;DHT22;13414;44.534;18.700;2024-02-23T05:25:24;12.90;1.00
25512;DHT22;13414;44.534;18.700;2024-02-23T05:27:53;12.90;1.00
25512;DHT22;13414;44.534;18.700;2024-02-23T05:30:20;12.90;1.00
25512;DHT22;13414;44.534;18.700;2024-02-23T05:32:50;13.00;1.00
25512;DHT22;13414;44.534;18.700;2024-02-23T05:35:17;13.10;1.00
25512;DHT22;13414;44.534;18.700;2024-02-23T05:37:45;13.10;1.00
25512;DHT22;13414;44.534;18.700;2024-02-23T05:40:12;13.20;1.00
25512;DHT22;13414;44.534;18.700;2024-02-23T05:42:40;13.10;1.00
25512;DHT22;13414;44.534;18.700;2024-02-23T05:45:08;13.10;1.00
25512;DHT22;13414;44.534;18.700;2024-02-23T05:47:37;13.20;1.00
25512;DHT22;13414;44.534;18.700;2024-02-23T05:50:08;13.20;1.00
25512;DHT22;13414;44.534;18.700;2024-02-23T05:52:36;13.20;1.00
25512;DHT22;13414;44.534;18.700;2024-02-23T05:55:04;13.20;1.00
25512;DHT22;13414;44.534;18.700;2024-02-23T05:57:31;13.30;1.00
25512;DHT22;13414;44.534;18.700;2024-02-23T05:59:59;13.30;1.00
25512;DHT22;13414;44.534;18.700;2024-02-23T06:02:37;13.30;1.00
25512;DHT22;13414;44.534;18.700;2024-02-23T06:05:07;13.30;1.00
25512;DHT22;13414;44.534;18.700;2024-02-23T06:07:35;13.30;1.00
25512;DHT22;13414;44.534;18.700;2024-02-23T06:10:03;13.40;1.00
25512;DHT22;13414;44.534;18.700;2024-02-23T06:12:31;13.40;1.00
25512;DHT22;13414;44.534;18.700;2024-02-23T06:14:58;13.40;1.00
25512;DHT22;13414;44.534;18.700;2024-02-23T06:17:25;13.40;1.00
25512;DHT22;13414;44.534;18.700;2024-02-23T06:19:53;13.40;1.00
25512;DHT22;13414;44.534;18.700;2024-02-23T06:22:24;13.40;1.00
25512;DHT22;13414;44.534;18.700;2024-02-23T06:24:52;13.40;1.00
25512;DHT22;13414;44.534;18.700;2024-02-23T06:27:19;13.40;1.00
25512;DHT22;13414;44.534;18.700;2024-02-23T06:29:48;13.40;1.00
25512;DHT22;13414;44.534;18.700;2024-02-23T06:32:16;13.50;1.00
25512;DHT22;13414;44.534;18.700;2024-02-23T06:34:43;13.50;1.00
25512;DHT22;13414;44.534;18.700;2024-02-23T06:37:12;13.50;1.00
25512;DHT22;13414;44.534;18.700;2024-02-23T06:39:41;13.50;1.00
25512;DHT22;13414;44.534;18.700;2024-02-23T06:42:08;13.60;1.00
25512;DHT22;13414;44.534;18.700;2024-02-23T06:44:36;13.60;1.00
25512;DHT22;13414;44.534;18.700;2024-02-23T06:47:03;13.70;1.00
25512;DHT22;13414;44.534;18.700;2024-02-23T06:49:32;13.70;1.00
25512;DHT22;13414;44.534;18.700;2024-02-23T06:51:59;13.80;1.00
25512;DHT22;13414;44.534;18.700;2024-02-23T06:54:27;13.90;1.00
25512;DHT22;13414;44.534;18.700;2024-02-23T06:56:56;13.80;1.00
25512;DHT22;13414;44.534;18.700;2024-02-23T06:59:24;13.80;1.00
25512;DHT22;13414;44.534;18.700;2024-02-23T07:01:52;13.90;1.00
25512;DHT22;13414;44.534;18.700;2024-02-23T07:04:20;14.00;1.00
25512;DHT22;13414;44.534;18.700;2024-02-23T07:06:47;14.00;1.00
25512;DHT22;13414;44.534;18.700;2024-02-23T07:09:15;14.00;1.00
25512;DHT22;13414;44.534;18.700;2024-02-23T07:11:42;14.00;1.00
25512;DHT22;13414;44.534;18.700;2024-02-23T07:14:12;14.00;1.00
25512;DHT22;13414;44.534;18.700;2024-02-23T07:16:43;14.10;1.00
25512;DHT22;13414;44.534;18.700;2024-02-23T07:19:10;14.20;1.00
25512;DHT22;13414;44.534;18.700;2024-02-23T07:21:39;14.20;1.00
25512;DHT22;13414;44.534;18.700;2024-02-23T07:24:07;14.20;1.00
25512;DHT22;13414;44.534;18.700;2024-02-23T07:26:35;14.20;1.00
25512;DHT22;13414;44.534;18.700;2024-02-23T07:29:02;14.40;1.00
25512;DHT22;13414;44.534;18.700;2024-02-23T07:31:31;14.40;1.00
25512;DHT22;13414;44.534;18.700;2024-02-23T07:33:59;14.40;1.00
25512;DHT22;13414;44.534;18.700;2024-02-23T07:36:26;14.50;1.00
25512;DHT22;13414;44.534;18.700;2024-02-23T07:38:54;14.50;1.00
25512;DHT22;13414;44.534;18.700;2024-02-23T07:41:21;14.50;1.00
25512;DHT22;13414;44.534;18.700;2024-02-23T07:43:49;14.60;1.00
25512;DHT22;13414;44.534;18.700;2024-02-23T07:46:16;14.60;1.00
25512;DHT22;13414;44.534;18.700;2024-02-23T07:48:45;14.60;1.00
25512;DHT22;13414;44.534;18.700;2024-02-23T07:51:14;14.60;1.00
25512;DHT22;13414;44.534;18.700;2024-02-23T07:53:41;14.60;1.00
25512;DHT22;13414;44.534;18.700;2024-02-23T07:56:09;14.60;1.00
25512;DHT22;13414;44.534;18.700;2024-02-23T07:58:36;14.70;1.00
25512;DHT22;13414;44.534;18.700;2024-02-23T08:01:04;14.80;1.00
25512;DHT22;13414;44.534;18.700;2024-02-23T08:03:31;14.70;1.00
25512;DHT22;13414;44.534;18.700;2024-02-23T08:06:00;14.80;1.00
25512;DHT22;13414;44.534;18.700;2024-02-23T08:08:28;14.80;1.00
25512;DHT22;13414;44.534;18.700;2024-02-23T08:10:58;14.90;1.00
25512;DHT22;13414;44.534;18.700;2024-02-23T08:13:26;14.90;1.00
25512;DHT22;13414;44.534;18.700;2024-02-23T08:15:53;15.00;1.00
25512;DHT22;13414;44.534;18.700;2024-02-23T08:18:20;15.00;1.00
25512;DHT22;13414;44.534;18.700;2024-02-23T08:20:49;15.00;1.00
25512;DHT22;13414;44.534;18.700;2024-02-23T08:23:18;15.10;1.00
25512;DHT22;13414;44.534;18.700;2024-02-23T08:25:47;15.20;1.00
25512;DHT22;13414;44.534;18.700;2024-02-23T08:28:14;15.40;1.00
25512;DHT22;13414;44.534;18.700;2024-02-23T08:30:42;15.40;1.00
25512;DHT22;13414;44.534;18.700;2024-02-23T08:33:09;15.40;1.00
25512;DHT22;13414;44.534;18.700;2024-02-23T08:35:36;15.50;1.00
25512;DHT22;13414;44.534;18.700;2024-02-23T08:38:05;15.60;1.00
25512;DHT22;13414;44.534;18.700;2024-02-23T08:40:34;15.60;1.00
25512;DHT22;13414;44.534;18.700;2024-02-23T08:43:02;15.60;1.00
25512;DHT22;13414;44.534;18.700;2024-02-23T08:45:30;15.70;1.00
25512;DHT22;13414;44.534;18.700;2024-02-23T08:47:57;15.60;1.00
25512;DHT22;13414;44.534;18.700;2024-02-23T08:50:24;15.70;1.00
25512;DHT22;13414;44.534;18.700;2024-02-23T08:52:52;15.50;1.00
25512;DHT22;13414;44.534;18.700;2024-02-23T08:55:19;15.50;1.00
25512;DHT22;13414;44.534;18.700;2024-02-23T08:57:50;15.60;1.00
25512;DHT22;13414;44.534;18.700;2024-02-23T09:00:18;15.60;1.00
25512;DHT22;13414;44.534;18.700;2024-02-23T09:02:49;15.80;1.00
25512;DHT22;13414;44.534;18.700;2024-02-23T09:05:26;16.00;1.00
25512;DHT22;13414;44.534;18.700;2024-02-23T09:07:55;16.20;1.00
25512;DHT22;13414;44.534;18.700;2024-02-23T09:10:22;16.40;1.00
25512;DHT22;13414;44.534;18.700;2024-02-23T09:12:52;16.00;1.00
25512;DHT22;13414;44.534;18.700;2024-02-23T09:15:19;16.00;1.00
25512;DHT22;13414;44.534;18.700;2024-02-23T09:17:47;15.90;1.00
25512;DHT22;13414;44.534;18.700;2024-02-23T09:20:15;15.80;1.00
25512;DHT22;13414;44.534;18.700;2024-02-23T09:22:43;15.80;1.00
25512;DHT22;13414;44.534;18.700;2024-02-23T09:25:11;15.80;1.00
25512;DHT22;13414;44.534;18.700;2024-02-23T09:27:38;15.90;1.00
25512;DHT22;13414;44.534;18.700;2024-02-23T09:30:12;15.90;1.00
25512;DHT22;13414;44.534;18.700;2024-02-23T09:32:40;16.00;1.00
25512;DHT22;13414;44.534;18.700;2024-02-23T09:35:07;16.10;1.00
25512;DHT22;13414;44.534;18.700;2024-02-23T09:37:36;16.20;1.00
25512;DHT22;13414;44.534;18.700;2024-02-23T09:40:04;16.20;1.00
25512;DHT22;13414;44.534;18.700;2024-02-23T09:42:32;16.30;1.00
25512;DHT22;13414;44.534;18.700;2024-02-23T09:45:00;16.40;1.00
25512;DHT22;13414;44.534;18.700;2024-02-23T09:47:29;16.50;1.00
25512;DHT22;13414;44.534;18.700;2024-02-23T09:49:59;16.40;1.00
25512;DHT22;13414;44.534;18.700;2024-02-23T09:52:28;16.40;1.00
25512;DHT22;13414;44.534;18.700;2024-02-23T09:54:56;16.60;1.00
25512;DHT22;13414;44.534;18.700;2024-02-23T09:57:24;16.70;1.00
25512;DHT22;13414;44.534;18.700;2024-02-23T09:59:51;16.70;1.00
25512;DHT22;13414;44.534;18.700;2024-02-23T10:02:19;16.70;1.00
25512;DHT22;13414;44.534;18.700;2024-02-23T10:04:50;16.40;1.00
25512;DHT22;13414;44.534;18.700;2024-02-23T10:07:18;16.40;1.00
25512;DHT22;13414;44.534;18.700;2024-02-23T10:09:45;16.60;1.00
25512;DHT22;13414;44.534;18.700;2024-02-23T10:12:13;16.60;1.00
25512;DHT22;13414;44.534;18.700;2024-02-23T10:14:41;16.80;1.00
25512;DHT22;13414;44.534;18.700;2024-02-23T10:17:09;16.70;1.00
25512;DHT22;13414;44.534;18.700;2024-02-23T10:19:36;16.50;1.00
25512;DHT22;13414;44.534;18.700;2024-02-23T10:22:05;16.50;1.00
25512;DHT22;13414;44.534;18.700;2024-02-23T10:24:33;16.70;1.00
25512;DHT22;13414;44.534;18.700;2024-02-23T10:27:01;16.80;1.00
25512;DHT22;13414;44.534;18.700;2024-02-23T10:29:28;16.60;1.00
25512;DHT22;13414;44.534;18.700;2024-02-23T10:31:57;16.60;1.00
25512;DHT22;13414;44.534;18.700;2024-02-23T10:34:24;16.90;1.00
25512;DHT22;13414;44.534;18.700;2024-02-23T10:36:54;16.90;1.00
25512;DHT22;13414;44.534;18.700;2024-02-23T10:39:24;16.80;1.00
25512;DHT22;13414;44.534;18.700;2024-02-23T10:41:57;16.70;1.00
25512;DHT22;13414;44.534;18.700;2024-02-23T10:44:27;16.60;1.00
25512;DHT22;13414;44.534;18.700;2024-02-23T10:46:55;16.50;1.00
25512;DHT22;13414;44.534;18.700;2024-02-23T10:49:24;16.30;1.00
25512;DHT22;13414;44.534;18.700;2024-02-23T10:51:53;16.00;1.00
25512;DHT22;13414;44.534;18.700;2024-02-23T10:54:24;15.80;1.00
25512;DHT22;13414;44.534;18.700;2024-02-23T10:56:52;15.70;1.00
25512;DHT22;13414;44.534;18.700;2024-02-23T10:59:21;15.70;1.00
25512;DHT22;13414;44.534;18.700;2024-02-23T11:01:51;15.70;1.00
25512;DHT22;13414;44.534;18.700;2024-02-23T11:04:20;15.70;1.00
25512;DHT22;13414;44.534;18.700;2024-02-23T11:06:51;15.60;1.00
25512;DHT22;13414;44.534;18.700;2024-02-23T11:09:21;15.60;1.00
25512;DHT22;13414;44.534;18.700;2024-02-23T11:11:57;15.60;1.00
25512;DHT22;13414;44.534;18.700;2024-02-23T11:14:31;15.40;1.00
25512;DHT22;13414;44.534;18.700;2024-02-23T11:16:59;15.30;1.00
25512;DHT22;13414;44.534;18.700;2024-02-23T11:19:34;15.20;1.00
25512;DHT22;13414;44.534;18.700;2024-02-23T11:22:02;15.10;1.00
25512;DHT22;13414;44.534;18.700;2024-02-23T11:24:30;14.90;1.00
25512;DHT22;13414;44.534;18.700;2024-02-23T11:26:59;14.60;1.00
25512;DHT22;13414;44.534;18.700;2024-02-23T11:29:34;14.40;1.00
25512;DHT22;13414;44.534;18.700;2024-02-23T11:32:02;14.40;1.00
25512;DHT22;13414;44.534;18.700;2024-02-23T11:34:30;14.40;99.90
25512;DHT22;13414;44.534;18.700;2024-02-23T11:36:57;14.20;99.90
25512;DHT22;13414;44.534;18.700;2024-02-23T11:39:34;14.10;1.00
25512;DHT22;13414;44.534;18.700;2024-02-23T11:42:04;14.00;1.00
25512;DHT22;13414;44.534;18.700;2024-02-23T11:44:32;13.80;99.90
25512;DHT22;13414;44.534;18.700;2024-02-23T11:46:59;13.80;1.00
25512;DHT22;13414;44.534;18.700;2024-02-23T11:49:29;13.70;1.00
25512;DHT22;13414;44.534;18.700;2024-02-23T11:51:57;13.70;1.00
25512;DHT22;13414;44.534;18.700;2024-02-23T11:54:25;13.80;12.30
25512;DHT22;13414;44.534;18.700;2024-02-23T11:56:52;13.70;99.90
25512;DHT22;13414;44.534;18.700;2024-02-23T11:59:21;13.60;99.90
25512;DHT22;13414;44.534;18.700;2024-02-23T12:01:50;13.60;1.00
25512;DHT22;13414;44.534;18.700;2024-02-23T12:04:17;13.60;1.00
25512;DHT22;13414;44.534;18.700;2024-02-23T12:06:44;13.60;1.00
25512;DHT22;13414;44.534;18.700;2024-02-23T12:09:13;13.50;1.00
25512;DHT22;13414;44.534;18.700;2024-02-23T12:11:41;13.60;99.90
25512;DHT22;13414;44.534;18.700;2024-02-23T12:14:08;13.50;99.90
25512;DHT22;13414;44.534;18.700;2024-02-23T12:16:37;13.40;1.00
25512;DHT22;13414;44.534;18.700;2024-02-23T12:19:08;13.50;1.00
25512;DHT22;13414;44.534;18.700;2024-02-23T12:21:35;13.70;99.90
25512;DHT22;13414;44.534;18.700;2024-02-23T12:24:04;13.80;1.00
25512;DHT22;13414;44.534;18.700;2024-02-23T12:26:33;13.80;1.00
25512;DHT22;13414;44.534;18.700;2024-02-23T12:29:01;13.90;1.00
25512;DHT22;13414;44.534;18.700;2024-02-23T12:31:31;14.20;99.90
25512;DHT22;13414;44.534;18.700;2024-02-23T12:34:00;14.40;99.90
25512;DHT22;13414;44.534;18.700;2024-02-23T12:36:28;14.50;99.90
25512;DHT22;13414;44.534;18.700;2024-02-23T12:38:56;14.60;99.90
25512;DHT22;13414;44.534;18.700;2024-02-23T12:41:24;14.60;99.90
25512;DHT22;13414;44.534;18.700;2024-02-23T12:43:51;14.50;99.90
25512;DHT22;13414;44.534;18.700;2024-02-23T12:46:19;14.50;99.90
25512;DHT22;13414;44.534;18.700;2024-02-23T12:48:47;14.60;99.90
25512;DHT22;13414;44.534;18.700;2024-02-23T12:51:16;14.50;1.00
25512;DHT22;13414;44.534;18.700;2024-02-23T12:53:43;14.70;1.00
25512;DHT22;13414;44.534;18.700;2024-02-23T12:56:20;14.80;1.00
25512;DHT22;13414;44.534;18.700;2024-02-23T12:58:47;14.90;1.00
25512;DHT22;13414;44.534;18.700;2024-02-23T13:01:15;14.90;1.00
25512;DHT22;13414;44.534;18.700;2024-02-23T13:03:43;14.90;1.00
25512;DHT22;13414;44.534;18.700;2024-02-23T13:06:10;14.90;1.00
25512;DHT22;13414;44.534;18.700;2024-02-23T13:08:40;15.00;1.00
25512;DHT22;13414;44.534;18.700;2024-02-23T13:11:08;15.10;1.00
25512;DHT22;13414;44.534;18.700;2024-02-23T13:13:36;15.10;1.00
25512;DHT22;13414;44.534;18.700;2024-02-23T13:16:04;15.10;1.00
25512;DHT22;13414;44.534;18.700;2024-02-23T13:18:32;15.30;1.00
25512;DHT22;13414;44.534;18.700;2024-02-23T13:21:00;15.30;1.00
25512;DHT22;13414;44.534;18.700;2024-02-23T13:23:29;15.30;1.00
25512;DHT22;13414;44.534;18.700;2024-02-23T13:25:58;15.30;1.00
25512;DHT22;13414;44.534;18.700;2024-02-23T13:28:28;15.30;1.00
25512;DHT22;13414;44.534;18.700;2024-02-23T13:30:56;15.30;1.00
25512;DHT22;13414;44.534;18.700;2024-02-23T13:33:23;15.30;1.00
25512;DHT22;13414;44.534;18.700;2024-02-23T13:35:51;15.30;1.00
25512;DHT22;13414;44.534;18.700;2024-02-23T13:38:19;15.30;1.00
25512;DHT22;13414;44.534;18.700;2024-02-23T13:40:47;15.40;1.00
25512;DHT22;13414;44.534;18.700;2024-02-23T13:43:15;15.30;1.00
25512;DHT22;13414;44.534;18.700;2024-02-23T13:45:49;15.30;1.00
25512;DHT22;13414;44.534;18.700;2024-02-23T13:48:17;15.30;1.00
25512;DHT22;13414;44.534;18.700;2024-02-23T13:50:46;15.40;1.00
25512;DHT22;13414;44.534;18.700;2024-02-23T13:53:14;15.40;1.00
25512;DHT22;13414;44.534;18.700;2024-02-23T13:55:42;15.40;1.00
25512;DHT22;13414;44.534;18.700;2024-02-23T13:58:10;15.30;1.00
25512;DHT22;13414;44.534;18.700;2024-02-23T14:00:39;15.40;1.00
25512;DHT22;13414;44.534;18.700;2024-02-23T14:03:07;15.40;1.00
25512;DHT22;13414;44.534;18.700;2024-02-23T14:05:35;15.50;1.00
25512;DHT22;13414;44.534;18.700;2024-02-23T14:08:03;15.60;1.00
25512;DHT22;13414;44.534;18.700;2024-02-23T14:10:33;15.60;1.00
25512;DHT22;13414;44.534;18.700;2024-02-23T14:13:00;15.60;1.00
25512;DHT22;13414;44.534;18.700;2024-02-23T14:15:27;15.60;1.00
25512;DHT22;13414;44.534;18.700;2024-02-23T14:17:56;15.60;1.00
25512;DHT22;13414;44.534;18.700;2024-02-23T14:20:24;15.60;1.00
25512;DHT22;13414;44.534;18.700;2024-02-23T14:22:52;15.60;1.00
25512;DHT22;13414;44.534;18.700;2024-02-23T14:25:19;15.60;1.00
25512;DHT22;13414;44.534;18.700;2024-02-23T14:27:47;15.60;1.00
25512;DHT22;13414;44.534;18.700;2024-02-23T14:30:15;15.60;1.00
25512;DHT22;13414;44.534;18.700;2024-02-23T14:32:42;15.60;1.00
25512;DHT22;13414;44.534;18.700;2024-02-23T14:35:11;15.70;1.00
25512;DHT22;13414;44.534;18.700;2024-02-23T14:37:39;15.70;1.00
25512;DHT22;13414;44.534;18.700;2024-02-23T14:40:07;15.70;1.00
25512;DHT22;13414;44.534;18.700;2024-02-23T14:42:35;15.70;1.00
25512;DHT22;13414;44.534;18.700;2024-02-23T14:45:05;15.70;1.00
25512;DHT22;13414;44.534;18.700;2024-02-23T14:47:33;15.60;1.00
25512;DHT22;13414;44.534;18.700;2024-02-23T14:50:00;15.70;1.00
25512;DHT22;13414;44.534;18.700;2024-02-23T14:52:29;15.70;1.00
25512;DHT22;13414;44.534;18.700;2024-02-23T14:54:57;15.70;1.00
25512;DHT22;13414;44.534;18.700;2024-02-23T14:57:24;15.60;1.00
25512;DHT22;13414;44.534;18.700;2024-02-23T14:59:52;15.50;1.00
25512;DHT22;13414;44.534;18.700;2024-02-23T15:02:20;15.50;1.00
25512;DHT22;13414;44.534;18.700;2024-02-23T15:04:47;15.50;1.00
25512;DHT22;13414;44.534;18.700;2024-02-23T15:07:15;15.50;1.00
25512;DHT22;13414;44.534;18.700;2024-02-23T15:09:44;15.50;1.00
25512;DHT22;13414;44.534;18.700;2024-02-23T15:12:12;15.50;1.00
25512;DHT22;13414;44.534;18.700;2024-02-23T15:14:40;15.50;1.00
25512;DHT22;13414;44.534;18.700;2024-02-23T15:17:07;15.50;1.00
25512;DHT22;13414;44.534;18.700;2024-02-23T15:19:35;15.50;1.00
25512;DHT22;13414;44.534;18.700;2024-02-23T15:22:02;15.50;1.00
25512;DHT22;13414;44.534;18.700;2024-02-23T15:24:31;15.50;1.00
25512;DHT22;13414;44.534;18.700;2024-02-23T15:27:00;15.50;1.00
25512;DHT22;13414;44.534;18.700;2024-02-23T15:29:27;15.50;1.00
25512;DHT22;13414;44.534;18.700;2024-02-23T15:31:55;15.50;1.00
25512;DHT22;13414;44.534;18.700;2024-02-23T15:34:22;15.50;1.00
25512;DHT22;13414;44.534;18.700;2024-02-23T15:36:49;15.50;1.00
25512;DHT22;13414;44.534;18.700;2024-02-23T15:39:17;15.50;1.00